createdAt,value
2022-12-20T00:00:57.879Z,97025.97
2022-12-20T00:03:24.523Z,97023.38
2022-12-20T00:05:51.150Z,97023.56
2022-12-20T00:08:17.914Z,97019.06
2022-12-20T00:10:46.025Z,97007.66
2022-12-20T00:13:13.637Z,96999.75
2022-12-20T00:15:40.362Z,97006.97
2022-12-20T00:18:07.454Z,97011.69
2022-12-20T00:20:34.201Z,96998.91
2022-12-20T00:23:01.254Z,97006.78
2022-12-20T00:25:27.975Z,96998.97
2022-12-20T00:27:54.564Z,97000.81
2022-12-20T00:30:21.263Z,97006.31
2022-12-20T00:32:47.847Z,97000.19
2022-12-20T00:35:14.609Z,97004.03
2022-12-20T00:37:41.255Z,96995.81
2022-12-20T00:40:08.898Z,97005.34
2022-12-20T00:42:35.604Z,97011.09
2022-12-20T00:45:03.056Z,97005.03
2022-12-20T00:47:29.611Z,97016.34
2022-12-20T00:49:56.200Z,97014.09
2022-12-20T00:52:22.823Z,97010.09
2022-12-20T00:54:49.406Z,97019.84
2022-12-20T00:57:16.031Z,97017.16
2022-12-20T00:59:42.608Z,97009.88
2022-12-20T01:02:09.387Z,97001.28
2022-12-20T01:04:36.114Z,97003.47
2022-12-20T01:07:02.793Z,97005.97
2022-12-20T01:09:29.500Z,97004.72
2022-12-20T01:11:56.085Z,97016.31
2022-12-20T01:14:22.763Z,97021.09
2022-12-20T01:16:49.510Z,97021.09
2022-12-20T01:19:18.255Z,97009.72
2022-12-20T01:21:45.168Z,97014.19
2022-12-20T01:24:14.483Z,97012.34
2022-12-20T01:26:41.713Z,97004.59
2022-12-20T01:29:08.884Z,97000.28
2022-12-20T01:31:35.702Z,97005.56
2022-12-20T01:34:03.733Z,96990.88
2022-12-20T01:36:33.942Z,96987.19
2022-12-20T01:39:06.611Z,97004.19
2022-12-20T01:41:34.726Z,97004.38
2022-12-20T01:44:02.729Z,96999.25
2022-12-20T01:46:32.329Z,96999.47
2022-12-20T01:49:14.076Z,97003.81
2022-12-20T01:51:45.308Z,97007.53
2022-12-20T01:54:16.827Z,97005.56
2022-12-20T01:56:47.727Z,96997.63
2022-12-20T01:59:14.865Z,96988.03
2022-12-20T02:01:43.538Z,96982.75
2022-12-20T02:04:10.397Z,96987.16
2022-12-20T02:06:36.996Z,96988.88
2022-12-20T02:09:05.542Z,96997.06
2022-12-20T02:11:41.400Z,96997.09
2022-12-20T02:14:35.993Z,97000.78
2022-12-20T02:17:02.574Z,97001.63
2022-12-20T02:19:40.950Z,96991.06
2022-12-20T02:22:39.004Z,96994.31
2022-12-20T02:26:04.741Z,96984.56
2022-12-20T02:28:52.812Z,96988.41
2022-12-20T02:31:27.481Z,96993.09
2022-12-20T02:33:57.747Z,96987.41
2022-12-20T02:36:25.583Z,96995.16
2022-12-20T02:38:52.412Z,96996.34
2022-12-20T02:41:27.189Z,96999.00
2022-12-20T02:44:17.616Z,97002.66
2022-12-20T02:46:45.768Z,97004.47
2022-12-20T02:49:16.858Z,97003.06
2022-12-20T02:51:47.344Z,97003.25
2022-12-20T02:54:16.031Z,96999.38
2022-12-20T02:56:50.350Z,96990.84
2022-12-20T02:59:32.475Z,96997.97
2022-12-20T03:01:59.627Z,96994.94
2022-12-20T03:04:32.355Z,96996.75
2022-12-20T03:07:02.439Z,97003.69
2022-12-20T03:09:31.553Z,97007.69
2022-12-20T03:11:58.508Z,96999.19
2022-12-20T03:14:25.125Z,97004.66
2022-12-20T03:16:52.336Z,96995.34
2022-12-20T03:19:19.809Z,96990.25
2022-12-20T03:21:46.755Z,96990.84
2022-12-20T03:24:14.039Z,96999.97
2022-12-20T03:26:41.395Z,96994.28
2022-12-20T03:29:08.277Z,96992.63
2022-12-20T03:31:35.810Z,96995.09
2022-12-20T03:34:02.832Z,96991.88
2022-12-20T03:36:29.612Z,96986.59
2022-12-20T03:38:56.492Z,96990.22
2022-12-20T03:41:24.243Z,96992.66
2022-12-20T03:43:52.978Z,96986.53
2022-12-20T03:46:19.671Z,96981.03
2022-12-20T03:48:46.368Z,96970.22
2022-12-20T03:51:13.060Z,96969.19
2022-12-20T03:53:39.784Z,96969.81
2022-12-20T03:56:06.606Z,96964.50
2022-12-20T03:58:33.217Z,96967.59
2022-12-20T04:00:59.806Z,96971.47
2022-12-20T04:03:26.487Z,96962.91
2022-12-20T04:05:53.187Z,96956.81
2022-12-20T04:08:19.807Z,96971.72
2022-12-20T04:11:04.534Z,96968.25
2022-12-20T04:13:31.140Z,96971.09
2022-12-20T04:16:00.611Z,96967.84
2022-12-20T04:18:27.701Z,96969.88
2022-12-20T04:20:54.972Z,96982.50
2022-12-20T04:23:21.697Z,96983.34
2022-12-20T04:25:48.279Z,96977.41
2022-12-20T04:28:14.892Z,96973.53
2022-12-20T04:30:41.486Z,96967.66
2022-12-20T04:33:08.121Z,96968.19
2022-12-20T04:35:34.841Z,96955.16
2022-12-20T04:38:01.533Z,96960.63
2022-12-20T04:40:28.129Z,96951.88
2022-12-20T04:42:54.787Z,96957.16
2022-12-20T04:45:21.434Z,96959.16
2022-12-20T04:47:48.079Z,96948.59
2022-12-20T04:50:14.869Z,96939.63
2022-12-20T04:52:59.933Z,96942.47
2022-12-20T04:55:26.580Z,96937.59
2022-12-20T04:57:53.173Z,96943.84
2022-12-20T05:00:20.350Z,96947.75
2022-12-20T05:02:47.416Z,96938.44
2022-12-20T05:05:14.238Z,96942.50
2022-12-20T05:07:40.838Z,96942.47
2022-12-20T05:10:07.922Z,96934.66
2022-12-20T05:12:34.543Z,96937.28
2022-12-20T05:15:01.127Z,96926.69
2022-12-20T05:17:27.738Z,96929.13
2022-12-20T05:19:54.340Z,96923.97
2022-12-20T05:22:39.207Z,96911.97
2022-12-20T05:25:24.320Z,96904.25
2022-12-20T05:27:50.924Z,96896.28
2022-12-20T05:30:17.622Z,96896.06
2022-12-20T05:32:44.217Z,96894.06
2022-12-20T05:35:10.827Z,96899.38
2022-12-20T05:37:37.518Z,96903.09
2022-12-20T05:40:04.977Z,96900.34
2022-12-20T05:42:31.574Z,96898.19
2022-12-20T05:44:58.220Z,96899.34
2022-12-20T05:47:24.935Z,96896.09
2022-12-20T05:49:51.570Z,96895.69
2022-12-20T05:52:18.241Z,96889.97
2022-12-20T05:54:44.859Z,96894.88
2022-12-20T05:57:11.626Z,96895.84
2022-12-20T05:59:38.511Z,96896.28
2022-12-20T06:02:05.238Z,96896.16
2022-12-20T06:04:32.778Z,96896.38
2022-12-20T06:07:02.431Z,96900.00
2022-12-20T06:09:30.188Z,96913.06
2022-12-20T06:11:56.970Z,96926.03
2022-12-20T06:14:23.594Z,96914.06
2022-12-20T06:16:50.237Z,96913.09
2022-12-20T06:19:21.398Z,96910.25
2022-12-20T06:21:48.390Z,96913.91
2022-12-20T06:24:15.619Z,96916.91
2022-12-20T06:26:42.419Z,96908.13
2022-12-20T06:29:14.029Z,96914.63
2022-12-20T06:31:41.175Z,96918.34
2022-12-20T06:34:08.016Z,96909.81
2022-12-20T06:36:34.767Z,96904.50
2022-12-20T06:39:06.131Z,96906.53
2022-12-20T06:41:36.674Z,96897.38
2022-12-20T06:44:03.683Z,96891.47
2022-12-20T06:46:30.322Z,96896.72
2022-12-20T06:48:57.446Z,96898.78
2022-12-20T06:51:24.419Z,96895.03
2022-12-20T06:53:51.339Z,96890.59
2022-12-20T06:56:18.089Z,96889.75
2022-12-20T06:58:46.619Z,96891.81
2022-12-20T07:01:13.620Z,96889.47
2022-12-20T07:03:40.604Z,96887.47
2022-12-20T07:06:07.398Z,96903.25
2022-12-20T07:08:33.996Z,96904.94
2022-12-20T07:11:07.951Z,96909.06
2022-12-20T07:13:35.042Z,96909.84
2022-12-20T07:16:03.085Z,96907.78
2022-12-20T07:18:30.213Z,96917.41
2022-12-20T07:21:00.985Z,96920.22
2022-12-20T07:23:27.823Z,96907.84
2022-12-20T07:25:59.476Z,96902.06
2022-12-20T07:28:27.587Z,96893.50
2022-12-20T07:30:54.703Z,96897.31
2022-12-20T07:33:21.485Z,96904.84
2022-12-20T07:35:54.043Z,96911.19
2022-12-20T07:38:21.067Z,96907.06
2022-12-20T07:40:47.690Z,96901.78
2022-12-20T07:43:14.304Z,96901.00
2022-12-20T07:45:41.040Z,96899.56
2022-12-20T07:48:12.578Z,96897.50
2022-12-20T07:50:42.165Z,96889.03
2022-12-20T07:53:10.522Z,96891.97
2022-12-20T07:55:40.556Z,96896.69
2022-12-20T07:58:09.661Z,96894.38
2022-12-20T08:00:37.539Z,96886.38
2022-12-20T08:03:09.023Z,96891.25
2022-12-20T08:05:38.929Z,96886.38
2022-12-20T08:08:06.235Z,96888.75
2022-12-20T08:10:33.184Z,96880.41
2022-12-20T08:13:00.277Z,96879.63
2022-12-20T08:15:28.986Z,96884.22
2022-12-20T08:17:55.637Z,96888.91
2022-12-20T08:20:22.663Z,96880.31
2022-12-20T08:22:49.240Z,96876.13
2022-12-20T08:25:15.953Z,96881.16
2022-12-20T08:27:42.621Z,96861.47
2022-12-20T08:30:10.862Z,96860.13
2022-12-20T08:32:38.322Z,96862.75
2022-12-20T08:35:06.008Z,96859.88
2022-12-20T08:37:32.757Z,96853.31
2022-12-20T08:40:00.876Z,96852.75
2022-12-20T08:42:28.565Z,96850.31
2022-12-20T08:44:55.798Z,96839.81
2022-12-20T08:47:22.388Z,96846.94
2022-12-20T08:49:48.996Z,96838.50
2022-12-20T08:52:15.679Z,96848.28
2022-12-20T08:54:42.426Z,96840.78
2022-12-20T08:57:09.173Z,96845.06
2022-12-20T08:59:35.858Z,96844.13
2022-12-20T09:02:02.612Z,96842.94
2022-12-20T09:04:29.391Z,96838.78
2022-12-20T09:06:55.981Z,96841.16
2022-12-20T09:09:22.588Z,96842.84
2022-12-20T09:11:49.194Z,96841.88
2022-12-20T09:14:15.767Z,96854.00
2022-12-20T09:16:42.398Z,96850.88
2022-12-20T09:19:12.948Z,96850.38
2022-12-20T09:21:39.559Z,96847.44
2022-12-20T09:24:06.611Z,96838.78
2022-12-20T09:26:35.283Z,96837.81
2022-12-20T09:29:02.407Z,96831.81
2022-12-20T09:31:29.123Z,96835.34
2022-12-20T09:33:58.095Z,96832.91
2022-12-20T09:36:26.369Z,96832.16
2022-12-20T09:38:54.766Z,96830.03
2022-12-20T09:41:41.684Z,96825.25
2022-12-20T09:44:25.700Z,96823.91
2022-12-20T09:47:03.498Z,96819.22
2022-12-20T09:49:36.435Z,96824.66
2022-12-20T09:52:18.276Z,96819.81
2022-12-20T09:54:56.031Z,96819.44
2022-12-20T09:57:28.759Z,96823.13
2022-12-20T09:59:57.708Z,96824.56
2022-12-20T10:02:56.604Z,96829.44
2022-12-20T10:05:16.995Z,96824.94
2022-12-20T10:07:59.577Z,96828.91
2022-12-20T10:10:41.466Z,96829.97
2022-12-20T10:13:18.362Z,96826.66
2022-12-20T10:15:54.819Z,96821.16
2022-12-20T10:18:45.502Z,96821.41
2022-12-20T10:21:34.714Z,96820.94
2022-12-20T10:24:04.919Z,96817.94
2022-12-20T10:26:33.832Z,96813.91
2022-12-20T10:29:00.422Z,96802.38
2022-12-20T10:31:27.545Z,96790.69
2022-12-20T10:33:54.271Z,96801.53
2022-12-20T10:36:23.198Z,96792.88
2022-12-20T10:38:52.555Z,96787.59
2022-12-20T10:41:28.377Z,96781.22
2022-12-20T10:44:01.316Z,96785.91
2022-12-20T10:46:43.552Z,96774.84
2022-12-20T10:49:26.888Z,96769.28
2022-12-20T10:51:55.759Z,96766.75
2022-12-20T10:54:30.195Z,96768.03
2022-12-20T10:57:01.013Z,96760.50
2022-12-20T10:59:36.184Z,96755.97
2022-12-20T11:02:23.717Z,96761.94
2022-12-20T11:05:10.544Z,96751.66
2022-12-20T11:08:33.475Z,96748.84
2022-12-20T11:10:39.995Z,96739.91
2022-12-20T11:13:06.854Z,96740.28
2022-12-20T11:15:37.129Z,96729.22
2022-12-20T11:18:13.761Z,96728.50
2022-12-20T11:20:43.089Z,96725.34
2022-12-20T11:23:18.848Z,96718.47
2022-12-20T11:26:04.735Z,96716.56
2022-12-20T11:28:49.948Z,96709.00
2022-12-20T11:31:50.091Z,96705.38
2022-12-20T11:34:32.112Z,96702.31
2022-12-20T11:37:24.147Z,96698.09
2022-12-20T11:39:56.544Z,96701.81
2022-12-20T11:43:00.801Z,96695.94
2022-12-20T11:45:45.733Z,96692.25
2022-12-20T11:48:22.659Z,96688.91
2022-12-20T11:51:27.104Z,96689.72
2022-12-20T11:54:09.779Z,96680.09
2022-12-20T11:56:44.777Z,96678.34
2022-12-20T11:59:25.008Z,96674.31
2022-12-20T12:02:05.776Z,96675.09
2022-12-20T12:04:39.057Z,96670.25
2022-12-20T12:07:20.593Z,96670.88
2022-12-20T12:10:01.622Z,96659.44
2022-12-20T12:12:28.251Z,96661.53
2022-12-20T12:15:00.960Z,96667.13
2022-12-20T12:17:33.724Z,96661.75
2022-12-20T12:20:15.790Z,96661.56
2022-12-20T12:22:44.503Z,96660.41
2022-12-20T12:25:16.519Z,96663.97
2022-12-20T12:27:43.507Z,96661.00
2022-12-20T12:30:15.587Z,96649.41
2022-12-20T12:33:02.464Z,96650.19
2022-12-20T12:36:15.317Z,96652.75
2022-12-20T12:38:41.847Z,96641.47
2022-12-20T12:41:49.129Z,96644.47
2022-12-20T12:44:46.271Z,96641.69
2022-12-20T12:47:25.070Z,96630.63
2022-12-20T12:49:55.064Z,96625.06
2022-12-20T12:52:41.347Z,96627.84
2022-12-20T12:55:41.696Z,96627.81
2022-12-20T12:58:23.639Z,96626.19
2022-12-20T13:01:02.526Z,96620.22
2022-12-20T13:03:42.052Z,96619.53
2022-12-20T13:06:23.721Z,96622.59
2022-12-20T13:09:22.550Z,96619.00
2022-12-20T13:11:57.380Z,96616.63
2022-12-20T13:14:29.378Z,96611.78
2022-12-20T13:17:14.714Z,96618.59
2022-12-20T13:19:53.376Z,96618.34
2022-12-20T13:22:27.079Z,96620.81
2022-12-20T13:25:04.275Z,96621.09
2022-12-20T13:27:34.647Z,96614.09
2022-12-20T13:30:01.269Z,96614.28
2022-12-20T13:32:49.428Z,96605.63
2022-12-20T13:35:24.948Z,96598.25
2022-12-20T13:38:05.943Z,96595.56
2022-12-20T13:40:41.079Z,96585.19
2022-12-20T13:43:23.908Z,96585.88
2022-12-20T13:46:02.101Z,96575.28
2022-12-20T13:48:36.256Z,96584.94
2022-12-20T13:51:03.139Z,96586.06
2022-12-20T13:53:31.334Z,96575.69
2022-12-20T13:55:57.995Z,96578.69
2022-12-20T13:58:37.155Z,96586.16
2022-12-20T14:01:06.827Z,96578.03
2022-12-20T14:03:45.777Z,96569.41
2022-12-20T14:06:14.624Z,96565.75
2022-12-20T14:08:46.439Z,96573.56
2022-12-20T14:11:13.007Z,96564.94
2022-12-20T14:13:40.030Z,96573.00
2022-12-20T14:16:20.169Z,96567.56
2022-12-20T14:19:04.722Z,96564.91
2022-12-20T14:21:35.519Z,96567.56
2022-12-20T14:24:03.471Z,96563.44
2022-12-20T14:26:44.768Z,96560.53
2022-12-20T14:29:16.030Z,96566.63
2022-12-20T14:31:48.537Z,96569.28
2022-12-20T14:34:29.301Z,96568.00
2022-12-20T14:37:24.122Z,96565.31
2022-12-20T14:40:22.989Z,96569.28
2022-12-20T14:42:49.737Z,96572.81
2022-12-20T14:45:22.467Z,96580.28
2022-12-20T14:48:06.735Z,96580.09
2022-12-20T14:50:34.763Z,96584.72
2022-12-20T14:53:02.162Z,96588.78
2022-12-20T14:55:44.986Z,96594.09
2022-12-20T14:58:29.000Z,96596.41
2022-12-20T15:00:58.292Z,96592.94
2022-12-20T15:03:25.782Z,96598.38
2022-12-20T15:05:57.688Z,96605.06
2022-12-20T15:08:35.079Z,96601.00
2022-12-20T15:11:10.810Z,96603.28
2022-12-20T15:13:55.641Z,96602.03
2022-12-20T15:16:24.712Z,96601.66
2022-12-20T15:19:02.279Z,96596.47
2022-12-20T15:21:37.425Z,96590.84
2022-12-20T15:24:09.737Z,96591.28
2022-12-20T15:26:36.748Z,96592.28
2022-12-20T15:29:03.567Z,96587.75
2022-12-20T15:31:33.759Z,96584.56
2022-12-20T15:34:04.511Z,96584.22
2022-12-20T15:36:31.833Z,96583.75
2022-12-20T15:39:15.391Z,96591.44
2022-12-20T15:41:47.236Z,96593.22
2022-12-20T15:44:20.828Z,96589.81
2022-12-20T15:46:48.015Z,96585.53
2022-12-20T15:49:16.329Z,96578.66
2022-12-20T15:51:45.043Z,96578.16
2022-12-20T15:54:35.835Z,96576.47
2022-12-20T15:57:07.428Z,96571.63
2022-12-20T15:59:59.808Z,96559.19
2022-12-20T16:02:20.934Z,96549.28
2022-12-20T16:04:47.694Z,96546.03
2022-12-20T16:07:14.437Z,96543.50
2022-12-20T16:09:41.055Z,96530.84
2022-12-20T16:12:22.670Z,96534.31
2022-12-20T16:14:49.427Z,96522.91
2022-12-20T16:17:16.645Z,96511.16
2022-12-20T16:19:44.216Z,96510.59
2022-12-20T16:22:19.995Z,96508.47
2022-12-20T16:24:47.990Z,96499.66
2022-12-20T16:27:14.649Z,96506.84
2022-12-20T16:29:41.657Z,96501.28
2022-12-20T16:32:18.459Z,96494.34
2022-12-20T16:34:45.664Z,96498.19
2022-12-20T16:37:12.516Z,96495.66
2022-12-20T16:39:39.718Z,96503.53
2022-12-20T16:42:18.104Z,96502.47
2022-12-20T16:44:46.098Z,96497.56
2022-12-20T16:47:14.447Z,96492.06
2022-12-20T16:49:47.317Z,96493.78
2022-12-20T16:52:18.375Z,96495.94
2022-12-20T16:54:45.027Z,96502.41
2022-12-20T16:57:11.609Z,96504.78
2022-12-20T16:59:38.543Z,96511.00
2022-12-20T17:02:28.352Z,96526.00
2022-12-20T17:04:55.420Z,96513.72
2022-12-20T17:07:22.116Z,96517.44
2022-12-20T17:09:48.805Z,96510.50
2022-12-20T17:12:21.154Z,96500.66
2022-12-20T17:14:48.941Z,96496.28
2022-12-20T17:17:15.739Z,96497.28
2022-12-20T17:19:42.405Z,96501.78
2022-12-20T17:22:24.174Z,96502.81
2022-12-20T17:24:52.166Z,96511.50
2022-12-20T17:27:19.078Z,96513.78
2022-12-20T17:29:45.931Z,96517.03
2022-12-20T17:32:23.183Z,96515.34
2022-12-20T17:34:50.246Z,96507.03
2022-12-20T17:37:17.944Z,96493.47
2022-12-20T17:39:44.681Z,96490.19
2022-12-20T17:42:14.080Z,96488.91
2022-12-20T17:44:40.706Z,96492.38
2022-12-20T17:47:07.375Z,96488.47
2022-12-20T17:49:33.984Z,96497.69
2022-12-20T17:52:00.600Z,96493.31
2022-12-20T17:54:32.075Z,96484.91
2022-12-20T17:57:03.652Z,96483.50
2022-12-20T17:59:30.690Z,96490.19
2022-12-20T18:01:57.701Z,96491.19
2022-12-20T18:04:24.650Z,96483.59
2022-12-20T18:06:52.333Z,96490.69
2022-12-20T18:09:21.646Z,96494.81
2022-12-20T18:11:48.652Z,96482.44
2022-12-20T18:14:15.892Z,96485.19
2022-12-20T18:16:42.621Z,96487.34
2022-12-20T18:19:15.748Z,96488.34
2022-12-20T18:21:42.361Z,96481.91
2022-12-20T18:24:13.688Z,96476.72
2022-12-20T18:26:41.037Z,96476.50
2022-12-20T18:29:08.098Z,96476.47
2022-12-20T18:31:35.250Z,96481.03
2022-12-20T18:34:02.621Z,96476.09
2022-12-20T18:36:31.680Z,96481.28
2022-12-20T18:39:00.902Z,96477.50
2022-12-20T18:41:29.896Z,96466.94
2022-12-20T18:43:59.098Z,96473.16
2022-12-20T18:46:25.830Z,96469.09
2022-12-20T18:48:54.623Z,96464.75
2022-12-20T18:51:24.692Z,96471.19
2022-12-20T18:53:54.616Z,96470.56
2022-12-20T18:56:25.230Z,96480.06
2022-12-20T18:58:52.552Z,96463.97
2022-12-20T19:01:22.287Z,96468.66
2022-12-20T19:03:50.384Z,96450.25
2022-12-20T19:06:17.322Z,96450.06
2022-12-20T19:08:43.993Z,96460.09
2022-12-20T19:11:12.939Z,96457.19
2022-12-20T19:13:40.148Z,96463.59
2022-12-20T19:16:15.689Z,96462.13
2022-12-20T19:18:43.594Z,96443.72
2022-12-20T19:21:13.685Z,96444.97
2022-12-20T19:23:41.994Z,96438.78
2022-12-20T19:26:12.138Z,96435.47
2022-12-20T19:28:40.084Z,96421.31
2022-12-20T19:31:19.291Z,96412.84
2022-12-20T19:33:48.222Z,96406.63
2022-12-20T19:36:18.251Z,96405.47
2022-12-20T19:38:47.313Z,96404.44
2022-12-20T19:41:14.700Z,96406.16
2022-12-20T19:43:42.114Z,96407.78
2022-12-20T19:46:09.913Z,96396.50
2022-12-20T19:48:37.413Z,96393.19
2022-12-20T19:51:10.252Z,96386.63
2022-12-20T19:53:37.624Z,96394.22
2022-12-20T19:56:04.633Z,96392.38
2022-12-20T19:58:31.260Z,96398.00
2022-12-20T20:00:57.908Z,96395.91
2022-12-20T20:03:24.706Z,96400.38
2022-12-20T20:05:52.723Z,96394.50
2022-12-20T20:08:19.549Z,96401.38
2022-12-20T20:10:48.640Z,96388.25
2022-12-20T20:13:15.403Z,96397.94
2022-12-20T20:15:42.142Z,96401.75
2022-12-20T20:18:09.153Z,96404.59
2022-12-20T20:20:40.422Z,96402.53
2022-12-20T20:23:07.057Z,96398.66
2022-12-20T20:25:35.473Z,96396.91
2022-12-20T20:28:03.227Z,96390.50
2022-12-20T20:30:29.926Z,96376.25
2022-12-20T20:32:56.598Z,96385.44
2022-12-20T20:35:23.269Z,96387.63
2022-12-20T20:37:49.871Z,96384.19
2022-12-20T20:40:16.555Z,96377.72
2022-12-20T20:42:43.156Z,96371.75
2022-12-20T20:45:10.314Z,96374.47
2022-12-20T20:47:36.911Z,96370.03
2022-12-20T20:50:04.067Z,96375.31
2022-12-20T20:52:30.685Z,96375.66
2022-12-20T20:54:57.264Z,96374.94
2022-12-20T20:57:23.864Z,96369.91
2022-12-20T20:59:50.442Z,96369.44
2022-12-20T21:02:17.253Z,96360.72
2022-12-20T21:04:53.564Z,96362.75
2022-12-20T21:07:30.501Z,96364.16
2022-12-20T21:09:57.241Z,96359.41
2022-12-20T21:12:23.892Z,96346.69
2022-12-20T21:15:21.100Z,96343.22
2022-12-20T21:17:37.097Z,96344.50
2022-12-20T21:20:04.037Z,96347.59
2022-12-20T21:22:30.861Z,96333.59
2022-12-20T21:24:57.796Z,96333.94
2022-12-20T21:27:24.612Z,96340.72
2022-12-20T21:29:51.220Z,96344.75
2022-12-20T21:32:18.089Z,96346.34
2022-12-20T21:34:44.694Z,96332.19
2022-12-20T21:37:11.273Z,96315.88
2022-12-20T21:39:37.876Z,96306.09
2022-12-20T21:42:04.496Z,96303.56
2022-12-20T21:44:31.112Z,96310.22
2022-12-20T21:46:57.789Z,96314.81
2022-12-20T21:49:24.455Z,96318.06
2022-12-20T21:51:51.088Z,96309.44
2022-12-20T21:54:17.676Z,96304.81
2022-12-20T21:56:44.326Z,96311.47
2022-12-20T21:59:13.250Z,96298.13
2022-12-20T22:01:40.161Z,96292.16
2022-12-20T22:04:07.450Z,96289.63
2022-12-20T22:06:34.965Z,96290.41
2022-12-20T22:09:02.666Z,96290.88
2022-12-20T22:11:29.271Z,96298.59
2022-12-20T22:13:57.330Z,96304.38
2022-12-20T22:16:26.483Z,96301.25
2022-12-20T22:18:55.544Z,96298.25
2022-12-20T22:21:26.096Z,96288.94
2022-12-20T22:23:55.102Z,96282.63
2022-12-20T22:26:23.925Z,96274.91
2022-12-20T22:28:52.931Z,96272.56
2022-12-20T22:31:19.908Z,96268.97
2022-12-20T22:33:47.112Z,96263.75
2022-12-20T22:36:15.433Z,96248.25
2022-12-20T22:38:43.432Z,96243.16
2022-12-20T22:41:11.289Z,96251.13
2022-12-20T22:43:38.703Z,96264.13
2022-12-20T22:46:05.606Z,96275.13
2022-12-20T22:48:32.355Z,96278.16
2022-12-20T22:51:04.395Z,96279.88
2022-12-20T22:53:34.304Z,96279.66
2022-12-20T22:56:01.648Z,96294.44
2022-12-20T22:58:29.233Z,96291.47
2022-12-20T23:01:00.769Z,96290.34
2022-12-20T23:03:28.941Z,96282.28
2022-12-20T23:05:58.325Z,96283.88
2022-12-20T23:08:27.983Z,96284.69
2022-12-20T23:11:13.261Z,96302.28
2022-12-20T23:13:58.902Z,96299.59
2022-12-20T23:16:26.102Z,96302.00
2022-12-20T23:19:01.179Z,96289.47
2022-12-20T23:21:48.223Z,96266.63
2022-12-20T23:24:15.440Z,96262.94
2022-12-20T23:26:42.843Z,96262.47
2022-12-20T23:29:10.374Z,96263.50
2022-12-20T23:31:37.158Z,96264.72
2022-12-20T23:34:04.663Z,96265.00
2022-12-20T23:36:33.322Z,96275.88
2022-12-20T23:39:00.441Z,96284.50
2022-12-20T23:41:27.515Z,96290.44
2022-12-20T23:43:54.272Z,96299.19
2022-12-20T23:46:21.995Z,96312.06
2022-12-20T23:48:51.064Z,96324.84
2022-12-20T23:51:18.323Z,96340.75
2022-12-20T23:53:45.120Z,96345.38
2022-12-20T23:56:17.702Z,96353.56
2022-12-20T23:58:46.091Z,96346.16
